SMF weather

Sacramento International Airport
Sacramento, California, United States

Public forecast

Using degrees Fahrenheit for public forecast. Weather courtesy of forecast.io.

Current aviation weather report (METAR) for Sacramento International Airport

Retrieved 2019/12/06 11:53 UTC (54 minutes ago):

KSMF 061153Z 11005KT 10SM BKN055 12/09 A3005 RMK AO2 SLP176 T01170089 10128 20117 50002

Aviation forecast (TAF) for Sacramento International Airport

Retrieved 2019/12/06 12:42 UTC (5 minutes ago):

TAF KSMF 061141Z 0612/0712 11006KT P6SM OVC060 FM061700 15009KT P6SM OVC050 FM062300 17014G20KT P6SM OVC050 FM070300 16018G24KT P6SM -RA OVC050 FM070600 16025G40KT 4SM -RA BKN025 OVC050 FM070900 17020G35KT 4SM -RA OVC025